Nassau Point, New York
Current Conditions -  °F | °C
As of 6:53 PM on Monday 20 Oct 2014 (Local Time) from KFOK Reporting Station
Scattered Clouds Scattered Clouds  
Wind Chill: 57°   Ceiling: Unl
Heat Index: 57°   Visibility: 10mi
Dew Point: 42°   Wind: 7mph
Humidity: 57%   Direction: 210°SSW
Pressure: 30.01"   Gusts: NA
Location:  41.018°N, 72.4855°W
Report Text: KFOK 202253Z AUTO 21006KT 10SM SCT038 14/06 A3001 RMK AO2 SLP163 T01390056 TSNO
Loading
Personal Weather Stations






























Interactive Weather Map
Tropical Storm Tracking
New forecast layout! Learn more

10-Day Weather Forecast

Advertisements
Track Severe Weather on mobile